Tropical Cyclones
[Index]
Main Index Home Page Stock Weather Photos Extreme Storms Discussion Storm News and Storm Chasing Reports Tropical Cyclones / Hurricanes / Typhoons Weather Data and Links Wild Fires / Bushfires Weather Observation Techniques Weather Picture Catalogue Tornado Pictures and Reports Stock Video Footage and DVDs for sale
Season 1983-1984 Tropical Cyclone BOBBY Track Map
Season 1983-1984 Summaries: [BoM-AU] [JTWC-AU] [JTWC-SIO] [JTWC-SPAC] [JTWC-SH]
<<- Previous TC | JTWC 1983-1984 Season | Next TC ->>

click for intensity scale information  Lat/long Grid: Show Hide

 Date Labels: Show Hide

Joint Typhoon Warning Centre Cyclone Data

Name: BOBBY

16 Feb 1984 18:00 UTC to 23 Feb 1984 06:00 UTC

    date/time    lat    long     hPa   cat  kts
1984-02-16 18   15.6   119.8                  25          
1984-02-17 00   16.3   119.6                  25          
1984-02-17 06   16.9   119.1                  30          
1984-02-17 12   17.5   118.5                  30          
1984-02-17 18   17.9   117.8                  35          
1984-02-18 00   18.1   117.2            1     40          
1984-02-18 06   18.2   116.6            1     45          
1984-02-18 12   18.1   116.2            1     45          
1984-02-18 18   18.1   115.7            1     50          
1984-02-19 00   18.1   115.1            2     55          
1984-02-19 06   18.1   114.4            2     65          
1984-02-19 12   18.2   113.8            2     70          
1984-02-19 18   18.4   113.1            3     75          
1984-02-20 00   18.7   112.5            3     75          
1984-02-20 06   19.1   111.8            3     75          
1984-02-20 12   19.6   111.3            3     75          
1984-02-20 18   20.2   110.8            3     75          
1984-02-21 00   21.0   110.4            3     80          
1984-02-21 06   21.9   110.0            3     85          
1984-02-21 12   22.8   109.7            3     80          
1984-02-21 18   23.7   109.5            3     75          
1984-02-22 00   24.5   109.2            2     65          
1984-02-22 06   25.1   108.9            2     55          
1984-02-22 12   25.6   108.1            1     45          
1984-02-22 18   25.9   106.8            1     40          
1984-02-23 00   26.2   105.4                  35          
1984-02-23 06   26.4   103.9                  30          
Winds are 1-min average.

Tropical cyclone tracks developed by Michael Bath using data from the Joint Typhoon Warning Centre Best Tracks and Google Maps.


[Australian Severe Weather index] [Copyright Notice] [Email Contacts] [Search This Site] [Privacy Policy]
Document: tropical_cyclone_bobby.htm Updated: 18 September 2016